Time;durP1;ratioP1;P1;durP2;ratioP2;P2;SDS_P1;SDS_P2;PMS_P1;PMS_P2;Temp;Humidity;BMP_temperature;BMP_pressure;BME280_temperature;BME280_humidity;BME280_pressure;Samples;Min_cycle;Max_cycle;Signal;HPM_P1;HPM_P2
2021/06/05 00:01:19;;;;;;;32.40;29.87;;;21.20;99.90;;;;;;6188885;23;20420;-75
2021/06/05 00:03:49;;;;;;;37.33;34.23;;;21.10;99.90;;;;;;6189216;23;20424;-74
2021/06/05 00:06:18;;;;;;;32.30;29.80;;;21.10;99.90;;;;;;6225752;23;20944;-75
2021/06/05 00:08:46;;;;;;;32.90;30.30;;;21.10;99.90;;;;;;6189064;23;20502;-75
2021/06/05 00:11:16;;;;;;;32.73;30.13;;;21.00;99.90;;;;;;6226142;23;20491;-75
2021/06/05 00:13:46;;;;;;;34.00;31.30;;;21.00;99.90;;;;;;6226006;23;20398;-75
2021/06/05 00:16:17;;;;;;;36.30;33.23;;;21.00;99.90;;;;;;6225850;23;20440;-75
2021/06/05 00:18:45;;;;;;;31.73;29.10;;;20.90;99.90;;;;;;6188940;23;20770;-75
2021/06/05 00:21:15;;;;;;;34.50;31.70;;;20.90;99.90;;;;;;6188848;23;20495;-75
2021/06/05 00:23:43;;;;;;;34.50;31.70;;;20.90;99.90;;;;;;6214046;23;20453;-75
2021/06/05 00:26:11;;;;;;;34.50;31.80;;;20.80;99.90;;;;;;6188992;23;20432;-75
2021/06/05 00:28:39;;;;;;;35.60;32.70;;;20.80;99.90;;;;;;6225983;23;20408;-75
2021/06/05 00:31:06;;;;;;;33.93;31.23;;;20.80;99.90;;;;;;6188933;23;20447;-75
2021/06/05 00:33:34;;;;;;;32.00;29.40;;;20.70;99.90;;;;;;6188844;23;20433;-75
2021/06/05 00:36:03;;;;;;;32.80;29.90;;;20.70;99.90;;;;;;6188920;23;20444;-75
2021/06/05 00:38:32;;;;;;;35.30;32.40;;;20.70;99.90;;;;;;6188900;23;20537;-75
2021/06/05 00:41:01;;;;;;;37.60;34.50;;;20.60;99.90;;;;;;6189044;23;20906;-74
2021/06/05 00:43:31;;;;;;;37.10;34.10;;;20.60;99.90;;;;;;6188769;23;20899;-75
2021/06/05 00:45:59;;;;;;;39.43;36.17;;;20.60;99.90;;;;;;6188890;23;20812;-75
2021/06/05 00:48:27;;;;;;;35.20;32.20;;;20.60;99.90;;;;;;6188941;23;20486;-74
2021/06/05 00:50:58;;;;;;;34.77;31.90;;;20.60;99.90;;;;;;6188852;23;20413;-74
2021/06/05 00:53:35;;;;;;;35.60;32.70;;;20.50;99.90;;;;;;6188397;23;20443;-75
2021/06/05 00:56:05;;;;;;;34.30;31.30;;;20.50;99.90;;;;;;6226037;23;20452;-75
2021/06/05 00:58:34;;;;;;;35.87;33.07;;;20.50;99.90;;;;;;6188936;23;20471;-74
2021/06/05 01:01:10;;;;;;;36.20;33.20;;;20.40;99.90;;;;;;6225660;23;20456;-74
2021/06/05 01:03:39;;;;;;;34.43;31.63;;;20.40;99.90;;;;;;6216139;23;20398;-74
2021/06/05 01:06:14;;;;;;;35.80;33.00;;;20.40;99.90;;;;;;6188738;23;20914;-74
2021/06/05 01:08:52;;;;;;;36.53;33.63;;;20.40;99.90;;;;;;6225936;23;20861;-74
2021/06/05 01:11:28;;;;;;;36.27;33.27;;;20.30;99.90;;;;;;6226272;23;20466;-74
2021/06/05 01:14:01;;;;;;;39.93;36.57;;;20.30;99.90;;;;;;6190772;23;20411;-74
2021/06/05 01:16:31;;;;;;;39.27;35.97;;;20.30;99.90;;;;;;6190678;23;20509;-74
2021/06/05 01:19:02;;;;;;;40.92;37.63;;;20.20;99.90;;;;;;6190434;23;20410;-74
2021/06/05 01:21:55;;;;;;;39.03;35.90;;;20.20;99.90;;;;;;6190812;23;20171;-75
2021/06/05 01:24:45;;;;;;;39.80;36.60;;;20.20;99.90;;;;;;6190553;23;20503;-75
2021/06/05 01:27:18;;;;;;;42.67;38.97;;;20.20;99.90;;;;;;6227965;23;20844;-75
2021/06/05 01:29:52;;;;;;;41.53;38.13;;;20.10;99.90;;;;;;6190606;23;20439;-75
2021/06/05 01:32:21;;;;;;;46.80;43.00;;;20.10;99.90;;;;;;6189402;23;20410;-75
2021/06/05 01:34:52;;;;;;;44.80;40.97;;;20.10;99.90;;;;;;6215425;23;20204;-75
2021/06/05 01:37:26;;;;;;;45.67;41.67;;;20.10;99.90;;;;;;6190559;23;20417;-75
2021/06/05 01:40:13;;;;;;;48.27;43.93;;;20.10;99.90;;;;;;6190586;23;20464;-75
2021/06/05 01:42:45;;;;;;;46.17;42.07;;;20.00;99.90;;;;;;6227588;23;20436;-75
2021/06/05 01:45:26;;;;;;;45.70;41.80;;;20.00;99.90;;;;;;6227608;23;20523;-75
2021/06/05 01:47:56;;;;;;;45.97;41.87;;;20.00;99.90;;;;;;6191470;23;20404;-75
2021/06/05 01:50:27;;;;;;;46.50;42.50;;;20.00;99.90;;;;;;6190516;23;20743;-75
2021/06/05 01:52:59;;;;;;;49.00;44.63;;;19.90;99.90;;;;;;6226895;23;20948;-75
2021/06/05 01:55:31;;;;;;;44.50;40.60;;;19.90;99.90;;;;;;6227240;23;20447;-75
2021/06/05 01:58:12;;;;;;;43.73;40.03;;;19.90;99.90;;;;;;6191037;23;20411;-75
2021/06/05 02:00:53;;;;;;;42.07;38.47;;;19.90;99.90;;;;;;6190300;23;20432;-75
2021/06/05 02:03:24;;;;;;;45.17;41.47;;;19.90;99.90;;;;;;6190357;23;20446;-75
2021/06/05 02:06:09;;;;;;;46.33;42.20;;;19.90;99.90;;;;;;6190709;23;20442;-75
2021/06/05 02:08:41;;;;;;;44.83;41.03;;;19.80;99.90;;;;;;6190403;23;20416;-75
2021/06/05 02:11:14;;;;;;;44.53;40.60;;;19.80;99.90;;;;;;6190300;23;20405;-75
2021/06/05 02:13:49;;;;;;;43.10;39.23;;;19.80;99.90;;;;;;6190239;23;20416;-75
2021/06/05 02:16:23;;;;;;;45.42;41.60;;;19.70;99.90;;;;;;6190055;23;20492;-75
2021/06/05 02:18:54;;;;;;;40.40;36.83;;;19.80;99.90;;;;;;6190011;23;20503;-75
2021/06/05 02:21:35;;;;;;;44.37;40.33;;;19.80;99.90;;;;;;6190460;23;20415;-75
2021/06/05 02:24:07;;;;;;;46.87;42.47;;;19.70;99.90;;;;;;6189639;23;20413;-75
2021/06/05 02:26:40;;;;;;;44.40;40.42;;;19.70;99.90;;;;;;6190010;23;20460;-75
2021/06/05 02:29:26;;;;;;;44.67;40.67;;;19.70;99.90;;;;;;6190399;23;20245;-75
2021/06/05 02:31:55;;;;;;;43.27;39.60;;;19.60;99.90;;;;;;6226927;23;20383;-74
2021/06/05 02:34:26;;;;;;;41.03;37.43;;;19.60;99.90;;;;;;6226840;23;20932;-75
2021/06/05 02:36:58;;;;;;;44.43;40.60;;;19.60;99.90;;;;;;6190157;23;20412;-75
2021/06/05 02:39:27;;;;;;;44.50;40.57;;;19.60;99.90;;;;;;6190308;23;20436;-74
2021/06/05 02:42:08;;;;;;;44.60;40.77;;;19.50;99.90;;;;;;6190463;23;20412;-74
2021/06/05 02:44:43;;;;;;;45.97;41.97;;;19.50;99.90;;;;;;6190630;23;20920;-75
2021/06/05 02:47:19;;;;;;;43.57;39.67;;;19.50;99.90;;;;;;6189879;23;20407;-75
2021/06/05 02:49:48;;;;;;;43.70;39.80;;;19.50;99.90;;;;;;6189938;23;20406;-75
2021/06/05 02:52:31;;;;;;;44.70;40.60;;;19.50;99.90;;;;;;6189846;23;20466;-75
2021/06/05 02:55:10;;;;;;;43.63;39.80;;;19.40;99.90;;;;;;6189943;23;20439;-74
2021/06/05 02:57:39;;;;;;;42.83;38.87;;;19.40;99.90;;;;;;6189672;23;20408;-75
2021/06/05 03:00:28;;;;;;;41.33;37.83;;;19.40;99.90;;;;;;6214756;23;20426;-75
2021/06/05 03:02:57;;;;;;;38.40;35.00;;;19.40;99.90;;;;;;6226807;23;20463;-74
2021/06/05 03:05:26;;;;;;;38.33;35.03;;;19.40;99.90;;;;;;6226606;23;20420;-74
2021/06/05 03:07:55;;;;;;;39.13;35.73;;;19.40;99.90;;;;;;6226785;23;20396;-75
2021/06/05 03:10:26;;;;;;;39.43;36.03;;;19.30;99.90;;;;;;6189789;23;20402;-74
2021/06/05 03:12:54;;;;;;;35.60;32.30;;;19.30;99.90;;;;;;6189560;23;20467;-75
2021/06/05 03:15:25;;;;;;;37.70;34.47;;;19.30;99.90;;;;;;6189565;23;20445;-75
2021/06/05 03:17:53;;;;;;;37.17;33.87;;;19.30;99.90;;;;;;6214668;23;20407;-75
2021/06/05 03:20:36;;;;;;;33.33;30.63;;;19.30;99.90;;;;;;6225921;23;20941;-75
2021/06/05 03:23:05;;;;;;;34.50;31.60;;;19.30;99.90;;;;;;6189480;23;20943;-75
2021/06/05 03:25:32;;;;;;;40.00;36.60;;;19.20;99.90;;;;;;6187758;23;20472;-74
2021/06/05 03:28:00;;;;;;;36.87;33.53;;;19.40;99.90;;;;;;6189499;23;20176;-74
2021/06/05 03:30:30;;;;;;;38.27;35.07;;;19.30;99.90;;;;;;6189527;23;20447;-74
2021/06/05 03:33:02;;;;;;;41.07;37.20;;;19.30;99.90;;;;;;6189624;23;20413;-75
2021/06/05 03:35:33;;;;;;;39.53;36.07;;;19.30;99.90;;;;;;6226411;23;20447;-75
2021/06/05 03:38:01;;;;;;;42.77;39.07;;;19.30;99.90;;;;;;6214311;23;20415;-75
2021/06/05 03:40:33;;;;;;;45.00;41.10;;;19.30;99.90;;;;;;6216113;23;20478;-75
2021/06/05 03:43:02;;;;;;;47.27;43.23;;;19.30;99.90;;;;;;6189914;23;20418;-75
2021/06/05 03:45:34;;;;;;;46.20;42.10;;;19.20;99.90;;;;;;6227045;23;20434;-74
2021/06/05 03:48:04;;;;;;;42.90;39.20;;;19.20;99.90;;;;;;6189610;23;20510;-75
2021/06/05 03:50:36;;;;;;;43.00;39.20;;;19.20;99.90;;;;;;6189013;23;20735;-75
2021/06/05 03:53:08;;;;;;;44.60;40.80;;;19.20;99.90;;;;;;6189550;23;20414;-75
2021/06/05 03:55:38;;;;;;;43.30;39.40;;;19.30;99.90;;;;;;6189732;23;20435;-75
2021/06/05 03:58:06;;;;;;;44.10;40.33;;;19.20;99.90;;;;;;6189250;23;20423;-75
2021/06/05 04:00:40;;;;;;;42.53;38.73;;;19.20;99.90;;;;;;6188915;23;20439;-74
2021/06/05 04:03:08;;;;;;;42.13;38.13;;;19.30;99.90;;;;;;6227329;23;20391;-75
2021/06/05 04:05:36;;;;;;;43.03;39.23;;;19.30;99.90;;;;;;6188874;23;20493;-75
2021/06/05 04:08:05;;;;;;;43.70;39.87;;;19.30;99.90;;;;;;6189163;23;20490;-75
2021/06/05 04:10:34;;;;;;;53.58;48.55;;;19.30;99.90;;;;;;6225143;23;20459;-75
2021/06/05 04:13:01;;;;;;;39.00;35.60;;;19.40;99.90;;;;;;6215894;23;20202;-75
2021/06/05 04:15:31;;;;;;;37.57;34.37;;;19.40;99.90;;;;;;6188856;23;20450;-75
2021/06/05 04:18:02;;;;;;;37.27;34.17;;;19.40;99.90;;;;;;6226292;23;20427;-75
2021/06/05 04:20:34;;;;;;;36.73;33.67;;;19.40;99.90;;;;;;6213615;23;20459;-75
2021/06/05 04:23:02;;;;;;;33.83;30.90;;;19.40;99.90;;;;;;6188746;23;20473;-75
2021/06/05 04:25:30;;;;;;;37.00;33.90;;;19.40;99.90;;;;;;6215627;23;20497;-74
2021/06/05 04:27:59;;;;;;;36.23;33.03;;;19.40;99.90;;;;;;6188945;23;20453;-74
2021/06/05 04:30:29;;;;;;;36.60;33.50;;;19.40;99.90;;;;;;6190057;23;20415;-74
2021/06/05 04:32:57;;;;;;;35.90;32.87;;;19.40;99.90;;;;;;6223821;23;20867;-74
2021/06/05 04:35:27;;;;;;;35.37;32.47;;;19.50;99.90;;;;;;6188709;23;20518;-74
2021/06/05 04:37:56;;;;;;;37.47;34.20;;;19.50;99.90;;;;;;6225455;23;20433;-74
2021/06/05 04:40:24;;;;;;;36.57;33.70;;;19.50;99.90;;;;;;6225452;23;20485;-74
2021/06/05 04:42:52;;;;;;;35.83;32.80;;;19.60;99.90;;;;;;6188844;23;20486;-74
2021/06/05 04:45:22;;;;;;;36.40;33.23;;;19.60;99.90;;;;;;6188626;23;20949;-74
2021/06/05 04:47:50;;;;;;;35.50;32.60;;;19.60;99.90;;;;;;6189943;23;20491;-74
2021/06/05 04:50:21;;;;;;;35.63;32.63;;;19.60;99.90;;;;;;6190721;23;20419;-74
2021/06/05 04:52:51;;;;;;;32.17;29.50;;;19.60;99.90;;;;;;6227413;23;20381;-74
2021/06/05 04:55:19;;;;;;;29.87;27.43;;;19.70;99.90;;;;;;6227120;23;20452;-74
2021/06/05 04:57:52;;;;;;;27.60;25.50;;;19.70;99.90;;;;;;6191367;23;20408;-74
2021/06/05 05:00:23;;;;;;;27.43;25.17;;;19.70;99.90;;;;;;6227211;23;20825;-74
2021/06/05 05:02:51;;;;;;;27.03;24.93;;;19.70;99.90;;;;;;6190806;23;20438;-74
2021/06/05 05:05:19;;;;;;;27.93;25.73;;;19.70;99.90;;;;;;6215745;23;20454;-75
2021/06/05 05:07:47;;;;;;;27.20;25.00;;;19.70;99.90;;;;;;6190693;23;20915;-74
2021/06/05 05:10:18;;;;;;;25.53;23.53;;;19.70;99.90;;;;;;6227224;23;20430;-74
2021/06/05 05:12:45;;;;;;;26.43;24.27;;;19.70;99.90;;;;;;6190680;23;20408;-74
2021/06/05 05:15:14;;;;;;;26.17;23.83;;;19.80;99.90;;;;;;6190426;23;20811;-74
2021/06/05 05:17:42;;;;;;;26.90;24.63;;;19.80;99.90;;;;;;6227279;23;20495;-74
2021/06/05 05:20:13;;;;;;;26.98;24.88;;;19.80;99.90;;;;;;6190044;23;20415;-74
2021/06/05 05:22:40;;;;;;;26.87;24.73;;;19.80;99.90;;;;;;6215449;23;20173;-74
2021/06/05 05:25:10;;;;;;;27.40;24.93;;;19.70;99.90;;;;;;6227184;23;20435;-74
2021/06/05 05:27:40;;;;;;;25.17;23.07;;;19.70;99.90;;;;;;6227419;23;20864;-74
2021/06/05 05:30:11;;;;;;;26.07;23.97;;;19.70;99.90;;;;;;6227403;23;20404;-74
2021/06/05 05:32:38;;;;;;;26.20;24.10;;;19.70;99.90;;;;;;6215450;23;20438;-74
2021/06/05 05:35:07;;;;;;;27.60;25.30;;;19.60;99.90;;;;;;6190418;23;20475;-74
2021/06/05 05:37:35;;;;;;;25.50;23.60;;;19.60;99.90;;;;;;6226896;23;20387;-74
2021/06/05 05:40:04;;;;;;;28.10;25.80;;;19.50;99.90;;;;;;6216805;23;20460;-75
2021/06/05 05:42:31;;;;;;;27.27;25.17;;;19.50;99.90;;;;;;6227240;23;20510;-75
2021/06/05 05:45:00;;;;;;;26.23;24.17;;;19.40;99.90;;;;;;6216739;23;20841;-74
2021/06/05 05:47:28;;;;;;;27.93;25.37;;;19.40;99.90;;;;;;6227278;23;20516;-74
2021/06/05 05:49:56;;;;;;;28.37;25.87;;;19.40;99.90;;;;;;6190698;23;20413;-74
2021/06/05 05:52:24;;;;;;;28.70;26.40;;;19.40;99.90;;;;;;6226913;23;20479;-75
2021/06/05 05:54:51;;;;;;;27.37;24.93;;;19.40;99.90;;;;;;6190573;23;20498;-74
2021/06/05 05:57:19;;;;;;;27.80;25.60;;;19.40;99.90;;;;;;6190357;23;20411;-74
2021/06/05 05:59:46;;;;;;;26.23;24.13;;;19.40;99.90;;;;;;6217096;23;20414;-74
2021/06/05 06:02:15;;;;;;;29.80;27.30;;;19.30;99.90;;;;;;6226874;23;20769;-74
2021/06/05 06:04:43;;;;;;;27.17;24.97;;;19.30;99.90;;;;;;6227239;23;20399;-73
2021/06/05 06:07:11;;;;;;;30.17;27.58;;;19.30;99.90;;;;;;6190110;23;20485;-72
2021/06/05 06:09:38;;;;;;;28.40;26.10;;;19.30;99.90;;;;;;6226991;23;20187;-74
2021/06/05 06:12:07;;;;;;;28.50;26.07;;;19.20;99.90;;;;;;6230087;23;20395;-74
2021/06/05 06:14:35;;;;;;;27.30;25.20;;;19.20;99.90;;;;;;6226870;23;20401;-74
2021/06/05 06:17:03;;;;;;;28.40;26.10;;;19.20;99.90;;;;;;6227036;23;20399;-74
2021/06/05 06:19:33;;;;;;;30.35;27.85;;;19.20;99.90;;;;;;6226256;23;20428;-73
2021/06/05 06:22:01;;;;;;;28.83;26.33;;;19.20;99.90;;;;;;6226863;23;20191;-73
2021/06/05 06:24:28;;;;;;;32.43;29.77;;;19.20;99.90;;;;;;6226757;23;20431;-73
2021/06/05 06:26:56;;;;;;;28.63;26.37;;;19.20;99.90;;;;;;6190189;23;20875;-73
2021/06/05 06:29:29;;;;;;;31.30;28.87;;;19.20;99.90;;;;;;6227276;23;20859;-73
2021/06/05 06:31:58;;;;;;;29.97;27.60;;;19.20;99.90;;;;;;6229125;23;20379;-73
2021/06/05 06:34:27;;;;;;;28.03;25.77;;;19.20;99.90;;;;;;6206214;23;20485;-73
2021/06/05 06:37:00;;;;;;;29.60;27.20;;;19.20;99.90;;;;;;6226836;23;20495;-73
2021/06/05 06:39:30;;;;;;;30.23;27.73;;;19.20;99.90;;;;;;6189930;23;20426;-73
2021/06/05 06:41:58;;;;;;;30.33;27.93;;;19.20;99.90;;;;;;6189830;23;20518;-73
2021/06/05 06:44:26;;;;;;;30.90;28.23;;;19.20;99.90;;;;;;6190000;23;20469;-73
2021/06/05 06:46:54;;;;;;;29.77;27.40;;;19.20;99.90;;;;;;6216599;23;20411;-73
2021/06/05 06:49:23;;;;;;;30.63;28.17;;;19.20;99.90;;;;;;6189782;23;20439;-73
2021/06/05 06:51:51;;;;;;;30.53;28.13;;;19.20;99.90;;;;;;6189980;23;20400;-72
2021/06/05 06:54:22;;;;;;;31.00;28.23;;;19.20;99.90;;;;;;6191161;23;20755;-72
2021/06/05 06:56:54;;;;;;;32.37;29.67;;;19.20;99.90;;;;;;6189936;23;20422;-73
2021/06/05 06:59:22;;;;;;;32.33;29.63;;;19.20;99.90;;;;;;6227398;23;20388;-72
2021/06/05 07:01:49;;;;;;;32.43;29.63;;;19.20;99.90;;;;;;6226308;23;20432;-72
2021/06/05 07:04:18;;;;;;;32.67;29.77;;;19.20;99.90;;;;;;6226379;23;20395;-72
2021/06/05 07:06:45;;;;;;;33.22;30.52;;;19.20;99.90;;;;;;6215247;23;20467;-73
2021/06/05 07:09:16;;;;;;;29.33;26.77;;;19.30;99.90;;;;;;6226285;23;20171;-73
2021/06/05 07:11:46;;;;;;;31.77;29.20;;;19.30;99.90;;;;;;6189527;23;20422;-73
2021/06/05 07:14:13;;;;;;;32.00;29.27;;;19.30;99.90;;;;;;6226224;23;20399;-72
2021/06/05 07:16:41;;;;;;;31.80;29.07;;;19.30;99.90;;;;;;6189792;23;20953;-73
2021/06/05 07:19:10;;;;;;;31.67;29.13;;;19.30;99.90;;;;;;6216940;23;20786;-73
2021/06/05 07:21:37;;;;;;;34.10;31.40;;;19.30;99.90;;;;;;6189512;23;20925;-72
2021/06/05 07:24:32;;;;;;;31.07;28.67;;;19.20;99.90;;;;;;6226114;23;20400;-73
2021/06/05 07:27:02;;;;;;;32.30;29.47;;;19.20;99.90;;;;;;6226635;23;20380;-73
2021/06/05 07:29:30;;;;;;;32.67;29.97;;;19.20;99.90;;;;;;6226551;23;20408;-73
2021/06/05 07:32:01;;;;;;;32.20;29.57;;;19.20;99.90;;;;;;6189267;23;20411;-73
2021/06/05 07:34:34;;;;;;;30.63;28.00;;;19.10;99.90;;;;;;6225530;23;20405;-73
2021/06/05 07:37:07;;;;;;;31.07;28.47;;;19.10;99.90;;;;;;6227108;23;20719;-73
2021/06/05 07:39:35;;;;;;;32.63;29.93;;;19.10;99.90;;;;;;6216334;23;20473;-73
2021/06/05 07:42:06;;;;;;;30.93;28.30;;;19.10;99.90;;;;;;6188996;23;20441;-73
2021/06/05 07:44:34;;;;;;;34.87;31.77;;;19.10;99.90;;;;;;6215903;23;20392;-73
2021/06/05 07:47:03;;;;;;;33.60;30.83;;;19.00;99.90;;;;;;6225812;23;20718;-73
2021/06/05 07:49:34;;;;;;;32.87;29.97;;;19.00;99.90;;;;;;6226023;23;20474;-73
2021/06/05 07:52:03;;;;;;;31.13;28.70;;;19.10;99.90;;;;;;6189974;23;20400;-74
2021/06/05 07:54:31;;;;;;;31.90;29.20;;;19.00;99.90;;;;;;6188852;23;20739;-74
2021/06/05 07:56:58;;;;;;;33.00;30.10;;;19.00;99.90;;;;;;6189141;23;20816;-74
2021/06/05 07:59:29;;;;;;;32.23;29.53;;;19.00;99.90;;;;;;6226228;23;20414;-73
2021/06/05 08:01:57;;;;;;;32.33;29.70;;;19.00;99.90;;;;;;6215845;23;20493;-73
2021/06/05 08:04:25;;;;;;;33.70;30.90;;;19.00;99.90;;;;;;6225131;23;20421;-74
2021/06/05 08:06:56;;;;;;;32.63;30.00;;;19.00;99.90;;;;;;6226151;23;20255;-73
2021/06/05 08:09:23;;;;;;;33.37;30.47;;;19.00;99.90;;;;;;6225911;23;20415;-73
2021/06/05 08:11:51;;;;;;;35.30;32.30;;;19.00;99.90;;;;;;6189000;23;20547;-73
2021/06/05 08:14:19;;;;;;;34.10;31.50;;;19.00;99.90;;;;;;6188743;23;20898;-73
2021/06/05 08:16:48;;;;;;;36.75;33.65;;;18.90;99.90;;;;;;6187830;23;20736;-74
2021/06/05 08:19:16;;;;;;;37.10;33.83;;;19.00;99.90;;;;;;6225677;23;20255;-74
2021/06/05 08:21:45;;;;;;;37.23;34.07;;;19.00;99.90;;;;;;6188444;23;20943;-74
2021/06/05 08:24:13;;;;;;;35.97;32.90;;;19.00;99.90;;;;;;6189045;23;20459;-74
2021/06/05 08:26:41;;;;;;;39.00;35.63;;;19.00;99.90;;;;;;6188892;23;20931;-74
2021/06/05 08:29:09;;;;;;;37.83;34.73;;;19.00;99.90;;;;;;6189020;23;20415;-74
2021/06/05 08:31:38;;;;;;;36.77;33.73;;;19.00;99.90;;;;;;6226134;23;20482;-74
2021/06/05 08:34:11;;;;;;;40.30;36.80;;;19.00;99.90;;;;;;6225973;23;20461;-74
2021/06/05 08:36:38;;;;;;;37.83;34.60;;;19.00;99.90;;;;;;6188390;23;20439;-73
2021/06/05 08:39:07;;;;;;;38.93;35.57;;;19.00;99.90;;;;;;6189070;23;20422;-74
2021/06/05 08:41:39;;;;;;;38.57;35.40;;;19.00;99.90;;;;;;6188888;23;20497;-74
2021/06/05 08:44:11;;;;;;;37.53;34.43;;;19.00;99.90;;;;;;6189109;23;20494;-74
2021/06/05 08:46:42;;;;;;;37.10;34.07;;;19.00;99.90;;;;;;6189047;23;20438;-74
2021/06/05 08:49:17;;;;;;;38.23;34.87;;;19.00;99.90;;;;;;6225708;23;20429;-73
2021/06/05 08:51:58;;;;;;;39.20;36.10;;;19.00;99.90;;;;;;6225662;23;20470;-73
2021/06/05 08:54:36;;;;;;;38.40;35.00;;;19.00;99.90;;;;;;6188921;23;20407;-74
2021/06/05 08:57:11;;;;;;;40.50;36.90;;;19.00;99.90;;;;;;6189050;23;20415;-73
2021/06/05 08:59:42;;;;;;;39.57;36.07;;;19.00;99.90;;;;;;6215552;23;20431;-74
2021/06/05 09:02:11;;;;;;;39.80;36.40;;;19.00;99.90;;;;;;6188943;23;20437;-74
2021/06/05 09:04:41;;;;;;;41.70;38.30;;;19.00;99.90;;;;;;6224290;23;20476;-73
2021/06/05 09:07:11;;;;;;;39.67;36.30;;;19.10;99.90;;;;;;6225445;23;20165;-73
2021/06/05 09:09:42;;;;;;;38.73;35.53;;;19.10;99.90;;;;;;6188923;23;20410;-73
2021/06/05 09:12:11;;;;;;;38.90;35.57;;;19.10;99.90;;;;;;6188941;23;20415;-73
2021/06/05 09:14:39;;;;;;;38.70;35.40;;;19.10;99.90;;;;;;6224771;23;20402;-74
2021/06/05 09:17:16;;;;;;;40.30;36.70;;;19.10;99.90;;;;;;6188896;23;20403;-74
2021/06/05 09:20:01;;;;;;;38.27;35.00;;;19.10;99.90;;;;;;6225535;23;20438;-74
2021/06/05 09:22:33;;;;;;;40.60;37.20;;;19.10;99.90;;;;;;6225673;23;20516;-74
2021/06/05 09:25:24;;;;;;;39.33;35.93;;;19.00;99.90;;;;;;6188801;23;20500;-74
2021/06/05 09:27:52;;;;;;;40.90;37.30;;;19.00;99.90;;;;;;6188413;23;20835;-74
2021/06/05 09:30:34;;;;;;;40.37;37.10;;;19.00;99.90;;;;;;6226133;23;20395;-74
2021/06/05 09:33:05;;;;;;;41.67;38.27;;;19.00;99.90;;;;;;6189562;23;20431;-74
2021/06/05 09:35:37;;;;;;;39.47;36.13;;;19.00;99.90;;;;;;6190582;23;20493;-73
2021/06/05 09:38:17;;;;;;;41.53;38.03;;;19.00;99.90;;;;;;6190613;23;20418;-73
2021/06/05 09:41:01;;;;;;;41.60;38.00;;;19.00;99.90;;;;;;6190666;23;20522;-73
2021/06/05 09:43:29;;;;;;;41.23;37.60;;;19.00;99.90;;;;;;6190403;23;20466;-73
2021/06/05 09:46:08;;;;;;;43.10;39.20;;;19.00;99.90;;;;;;6227450;23;20411;-73
2021/06/05 09:48:39;;;;;;;45.00;41.10;;;19.00;99.90;;;;;;6227572;23;20387;-73
2021/06/05 09:51:27;;;;;;;44.23;40.50;;;19.00;99.90;;;;;;6217196;23;20478;-73
2021/06/05 09:54:01;;;;;;;46.33;42.33;;;19.10;99.90;;;;;;6227270;23;20438;-74
2021/06/05 09:56:32;;;;;;;45.57;41.53;;;19.10;99.90;;;;;;6190135;23;21025;-74
2021/06/05 09:59:03;;;;;;;47.63;43.50;;;19.10;99.90;;;;;;6227162;23;20387;-74
2021/06/05 10:01:33;;;;;;;46.57;42.50;;;19.20;99.90;;;;;;6227606;23;20463;-74
2021/06/05 10:04:16;;;;;;;47.53;43.53;;;19.30;99.90;;;;;;6227299;23;20380;-74
2021/06/05 10:06:49;;;;;;;48.80;44.57;;;19.40;99.90;;;;;;6190308;23;20523;-73
2021/06/05 10:09:42;;;;;;;50.80;46.30;;;19.50;99.90;;;;;;6190459;23;20826;-73
2021/06/05 10:12:16;;;;;;;48.60;44.30;;;19.60;99.90;;;;;;6190360;23;20474;-73
2021/06/05 10:15:00;;;;;;;51.67;47.30;;;19.70;99.90;;;;;;6225584;23;20453;-73
2021/06/05 10:17:39;;;;;;;49.90;45.37;;;19.90;99.90;;;;;;6227328;23;20153;-73
2021/06/05 10:20:19;;;;;;;52.37;47.77;;;19.90;99.90;;;;;;6227341;23;20715;-73
2021/06/05 10:22:50;;;;;;;55.00;50.13;;;19.90;99.90;;;;;;6226780;23;20886;-73
2021/06/05 10:25:30;;;;;;;50.47;46.10;;;19.90;99.90;;;;;;6190066;23;20428;-73
2021/06/05 10:28:04;;;;;;;52.23;47.70;;;19.90;99.90;;;;;;6227499;23;20471;-73
2021/06/05 10:30:41;;;;;;;52.40;47.60;;;20.00;99.90;;;;;;6190153;23;20404;-73
2021/06/05 10:33:17;;;;;;;49.97;45.80;;;20.00;99.90;;;;;;6226993;23;20500;-73
2021/06/05 10:35:46;;;;;;;50.67;45.97;;;20.00;99.90;;;;;;6189647;23;20521;-72
2021/06/05 10:38:20;;;;;;;51.87;47.20;;;20.10;99.90;;;;;;6227083;23;20403;-72
2021/06/05 10:40:49;;;;;;;49.50;45.10;;;20.10;99.90;;;;;;6226723;23;20460;-73
2021/06/05 10:43:17;;;;;;;51.97;47.47;;;20.20;99.90;;;;;;6226522;23;20428;-73
2021/06/05 10:45:47;;;;;;;53.27;48.57;;;20.30;99.90;;;;;;6226029;23;20468;-73
2021/06/05 10:48:24;;;;;;;54.27;49.57;;;20.50;99.90;;;;;;6226672;23;20419;-73
2021/06/05 10:51:01;;;;;;;52.87;48.00;;;20.60;99.90;;;;;;6189994;23;20405;-73
2021/06/05 10:53:34;;;;;;;48.23;44.00;;;20.70;99.90;;;;;;6226584;23;20390;-72
2021/06/05 10:56:13;;;;;;;44.57;40.77;;;20.90;99.90;;;;;;6226853;23;20442;-73
2021/06/05 10:58:47;;;;;;;45.30;41.57;;;21.10;99.90;;;;;;6226932;23;20381;-73
2021/06/05 11:01:46;;;;;;;41.88;38.38;;;21.20;99.90;;;;;;6216652;23;20433;-73
2021/06/05 11:04:45;;;;;;;41.10;37.83;;;21.40;99.90;;;;;;6227241;23;20182;-73
2021/06/05 11:07:31;;;;;;;42.13;38.73;;;21.50;99.90;;;;;;6226426;23;20469;-72
2021/06/05 11:10:04;;;;;;;43.13;39.60;;;21.60;99.90;;;;;;6189963;23;20870;-73
2021/06/05 11:12:53;;;;;;;41.73;38.43;;;21.60;99.90;;;;;;6189891;23;20505;-73
2021/06/05 11:15:54;;;;;;;44.42;40.92;;;21.70;99.90;;;;;;6224990;23;20406;-72
2021/06/05 11:18:26;;;;;;;43.53;39.93;;;21.80;99.90;;;;;;6227048;23;20175;-73
2021/06/05 11:20:54;;;;;;;41.97;38.30;;;21.90;99.90;;;;;;6226246;23;20420;-72
2021/06/05 11:23:30;;;;;;;43.07;39.47;;;21.90;99.90;;;;;;6189455;23;20436;-73
2021/06/05 11:26:38;;;;;;;41.83;38.33;;;22.00;99.90;;;;;;6189430;23;20557;-73
2021/06/05 11:29:07;;;;;;;41.20;37.70;;;22.10;99.90;;;;;;6226647;23;20421;-73
2021/06/05 11:31:40;;;;;;;42.00;38.37;;;22.10;99.90;;;;;;6226250;23;20393;-73
2021/06/05 11:34:09;;;;;;;38.70;35.60;;;22.20;99.90;;;;;;6189345;23;20905;-73
2021/06/05 11:36:44;;;;;;;36.03;33.07;;;22.30;99.90;;;;;;6226378;23;20423;-73
2021/06/05 11:39:46;;;;;;;35.13;32.37;;;22.30;99.90;;;;;;6189330;23;20445;-73
2021/06/05 11:42:50;;;;;;;36.60;33.60;;;22.40;99.90;;;;;;6189259;23;20488;-73
2021/06/05 11:45:38;;;;;;;35.87;33.07;;;22.40;99.90;;;;;;6216177;23;20493;-73
2021/06/05 11:48:36;;;;;;;33.40;30.83;;;22.50;99.90;;;;;;6189442;23;20498;-72
2021/06/05 11:51:30;;;;;;;35.43;32.63;;;22.50;99.90;;;;;;6225999;23;20480;-72
2021/06/05 11:54:00;;;;;;;35.17;32.37;;;22.60;99.90;;;;;;6213304;23;20446;-73
2021/06/05 11:56:31;;;;;;;36.03;33.20;;;22.60;99.90;;;;;;6225943;23;20429;-73
2021/06/05 11:59:14;;;;;;;34.35;31.75;;;22.80;99.90;;;;;;6226009;23;20390;-73
2021/06/05 12:01:41;;;;;;;34.03;31.10;;;23.00;99.90;;;;;;6225807;23;20234;-73
2021/06/05 12:04:13;;;;;;;30.40;27.90;;;23.20;99.90;;;;;;6225400;23;20527;-73
2021/06/05 12:06:43;;;;;;;29.50;27.10;;;23.30;99.90;;;;;;6188875;23;20521;-73
2021/06/05 12:09:15;;;;;;;30.07;27.77;;;23.40;99.90;;;;;;6225728;23;20390;-73
2021/06/05 12:11:48;;;;;;;31.48;29.08;;;23.40;99.90;;;;;;6225727;23;20421;-73
2021/06/05 12:14:29;;;;;;;28.40;26.17;;;23.40;99.90;;;;;;6226113;23;20161;-73
2021/06/05 12:16:59;;;;;;;29.07;26.80;;;23.40;99.90;;;;;;6189329;23;20500;-73
2021/06/05 12:19:32;;;;;;;28.50;26.40;;;23.40;99.90;;;;;;6216056;23;20478;-73
2021/06/05 12:22:12;;;;;;;25.60;23.60;;;23.40;99.90;;;;;;6225854;23;20387;-73
2021/06/05 12:24:43;;;;;;;28.17;25.97;;;23.40;99.90;;;;;;6225573;23;20411;-73
2021/06/05 12:27:22;;;;;;;27.57;25.43;;;23.40;99.90;;;;;;6226080;23;20418;-73
2021/06/05 12:29:52;;;;;;;27.20;25.20;;;23.40;99.90;;;;;;6188782;23;20452;-73
2021/06/05 12:32:26;;;;;;;32.70;30.03;;;23.40;99.90;;;;;;6215818;23;20497;-73
2021/06/05 12:34:54;;;;;;;28.13;25.93;;;23.40;99.90;;;;;;6225206;23;20422;-72
2021/06/05 12:37:25;;;;;;;30.20;27.80;;;23.40;99.90;;;;;;6225374;23;20401;-73
2021/06/05 12:39:55;;;;;;;30.60;28.10;;;23.40;99.90;;;;;;6188843;23;20541;-73
2021/06/05 12:42:26;;;;;;;29.23;26.93;;;23.40;99.90;;;;;;6188749;23;20500;-73
2021/06/05 12:45:01;;;;;;;29.60;27.40;;;23.50;99.90;;;;;;6225439;23;20455;-73
2021/06/05 12:47:31;;;;;;;30.33;27.80;;;23.50;99.90;;;;;;6225476;23;20829;-73
2021/06/05 12:50:00;;;;;;;30.30;27.90;;;23.50;99.90;;;;;;6188763;23;20883;-73
2021/06/05 12:52:29;;;;;;;30.40;28.00;;;23.50;99.90;;;;;;6225823;23;20405;-73
2021/06/05 12:55:18;;;;;;;29.57;27.40;;;23.50;99.90;;;;;;6225234;23;20766;-73